createdAt,value
2018-10-16T00:00:55.053Z,14.7
2018-10-16T00:01:55.769Z,14.4
2018-10-16T00:02:56.553Z,14.9
2018-10-16T00:03:57.274Z,14.7
2018-10-16T00:04:58.022Z,14.8
2018-10-16T00:05:58.755Z,15.6
2018-10-16T00:06:59.494Z,15.5
2018-10-16T00:08:00.231Z,14.3
2018-10-16T00:09:00.958Z,14.6
2018-10-16T00:10:01.685Z,14.3
2018-10-16T00:11:02.421Z,16.0
2018-10-16T00:12:03.155Z,13.8
2018-10-16T00:13:03.878Z,14.5
2018-10-16T00:14:04.609Z,14.1
2018-10-16T00:15:05.344Z,14.6
2018-10-16T00:16:06.055Z,15.1
2018-10-16T00:17:06.769Z,14.0
2018-10-16T00:18:07.761Z,15.0
2018-10-16T00:19:08.499Z,14.4
2018-10-16T00:20:09.213Z,14.6
2018-10-16T00:21:09.935Z,15.0
2018-10-16T00:22:10.661Z,14.3
2018-10-16T00:23:11.438Z,14.4
2018-10-16T00:24:12.433Z,15.3
2018-10-16T00:25:13.153Z,15.1
2018-10-16T00:26:14.123Z,14.4
2018-10-16T00:27:14.851Z,15.0
2018-10-16T00:28:15.597Z,15.1
2018-10-16T00:29:16.384Z,14.3
2018-10-16T00:30:17.097Z,14.8
2018-10-16T00:31:17.845Z,14.1
2018-10-16T00:32:18.560Z,13.9
2018-10-16T00:33:19.304Z,14.6
2018-10-16T00:34:20.137Z,15.0
2018-10-16T00:35:20.869Z,13.9
2018-10-16T00:36:21.581Z,14.2
2018-10-16T00:37:22.305Z,15.4
2018-10-16T00:38:23.026Z,15.8
2018-10-16T00:39:23.753Z,16.6
2018-10-16T00:40:24.741Z,15.7
2018-10-16T00:41:25.479Z,16.9
2018-10-16T00:42:26.223Z,17.3
2018-10-16T00:43:26.935Z,16.2
2018-10-16T00:44:27.657Z,15.7
2018-10-16T00:45:28.421Z,17.6
2018-10-16T00:46:29.138Z,16.1
2018-10-16T00:47:29.860Z,16.0
2018-10-16T00:48:30.853Z,16.3
2018-10-16T00:49:31.582Z,17.4
2018-10-16T00:50:32.308Z,17.1
2018-10-16T00:51:33.039Z,17.2
2018-10-16T00:52:33.777Z,16.7
2018-10-16T00:53:34.511Z,18.1
2018-10-16T00:54:35.252Z,17.4
2018-10-16T00:55:35.972Z,16.0
2018-10-16T00:56:36.688Z,16.2
2018-10-16T00:57:37.415Z,16.6
2018-10-16T00:58:38.123Z,17.7
2018-10-16T00:59:38.867Z,16.2
2018-10-16T01:00:39.602Z,17.0
2018-10-16T01:01:40.339Z,16.5
2018-10-16T01:02:41.061Z,17.9
2018-10-16T01:03:41.791Z,16.5
2018-10-16T01:04:42.516Z,18.4
2018-10-16T01:05:43.256Z,17.7
2018-10-16T01:06:43.987Z,16.4
2018-10-16T01:07:44.724Z,17.3
2018-10-16T01:08:45.452Z,16.4
2018-10-16T01:09:46.177Z,15.4
2018-10-16T01:10:46.904Z,15.2
2018-10-16T01:11:47.631Z,15.9
2018-10-16T01:12:48.346Z,15.9
2018-10-16T01:13:49.096Z,15.1
2018-10-16T01:14:49.808Z,15.0
2018-10-16T01:15:50.546Z,15.7
2018-10-16T01:16:51.277Z,16.5
2018-10-16T01:17:52.012Z,16.3
2018-10-16T01:18:52.731Z,17.2
2018-10-16T01:19:53.485Z,16.6
2018-10-16T01:20:54.227Z,17.0
2018-10-16T01:21:54.945Z,16.2
2018-10-16T01:22:55.680Z,16.0
2018-10-16T01:23:56.397Z,16.4
2018-10-16T01:24:57.113Z,16.1
2018-10-16T01:25:57.831Z,17.0
2018-10-16T01:26:58.593Z,17.1
2018-10-16T01:27:59.634Z,17.6
2018-10-16T01:29:00.340Z,15.7
2018-10-16T01:30:01.064Z,16.5
2018-10-16T01:31:01.780Z,16.1
2018-10-16T01:32:02.502Z,17.7
2018-10-16T01:33:03.280Z,16.9
2018-10-16T01:34:04.024Z,16.4
2018-10-16T01:35:04.750Z,16.7
2018-10-16T01:36:05.491Z,16.9
2018-10-16T01:37:06.217Z,17.2
2018-10-16T01:38:06.929Z,16.3
2018-10-16T01:39:07.645Z,15.7
2018-10-16T01:40:08.384Z,16.9
2018-10-16T01:41:09.096Z,17.0
2018-10-16T01:42:09.837Z,17.4
2018-10-16T01:43:10.618Z,15.4
2018-10-16T01:44:11.342Z,16.3
2018-10-16T01:45:12.077Z,16.0
2018-10-16T01:46:13.056Z,15.3
2018-10-16T01:47:13.766Z,16.0
2018-10-16T01:48:14.743Z,16.4
2018-10-16T01:49:15.481Z,15.8
2018-10-16T01:50:16.220Z,16.4
2018-10-16T01:51:17.253Z,15.8
2018-10-16T01:52:18.279Z,16.7
2018-10-16T01:53:18.998Z,16.3
2018-10-16T01:54:19.722Z,16.2
2018-10-16T01:55:20.463Z,16.2
2018-10-16T01:56:21.175Z,15.9
2018-10-16T01:57:21.914Z,16.4
2018-10-16T01:58:22.652Z,16.7
2018-10-16T01:59:23.365Z,17.0
2018-10-16T02:00:24.088Z,17.2
2018-10-16T02:01:24.803Z,16.9
2018-10-16T02:02:25.886Z,18.2
2018-10-16T02:03:26.836Z,19.2
2018-10-16T02:04:27.558Z,18.1
2018-10-16T02:05:28.270Z,17.7
2018-10-16T02:06:28.995Z,18.3
2018-10-16T02:07:29.729Z,17.9
2018-10-16T02:08:30.464Z,17.9
2018-10-16T02:09:31.561Z,16.3
2018-10-16T02:10:32.286Z,18.0
2018-10-16T02:11:33.269Z,17.8
2018-10-16T02:12:33.993Z,17.7
2018-10-16T02:13:34.761Z,17.7
2018-10-16T02:14:35.512Z,18.8
2018-10-16T02:15:36.215Z,17.6
2018-10-16T02:16:36.931Z,17.4
2018-10-16T02:17:37.649Z,18.2
2018-10-16T02:18:38.648Z,17.2
2018-10-16T02:19:39.635Z,17.4
2018-10-16T02:20:40.348Z,18.9
2018-10-16T02:21:41.104Z,18.3
2018-10-16T02:22:41.832Z,18.1
2018-10-16T02:23:42.567Z,18.0
2018-10-16T02:24:43.288Z,18.1
2018-10-16T02:25:44.025Z,18.2
2018-10-16T02:26:44.733Z,18.3
2018-10-16T02:27:45.467Z,18.6
2018-10-16T02:28:46.208Z,17.6
2018-10-16T02:29:46.933Z,17.9
2018-10-16T02:30:47.656Z,18.0
2018-10-16T02:31:48.370Z,17.9
2018-10-16T02:32:49.109Z,18.1
2018-10-16T02:33:49.824Z,17.4
2018-10-16T02:34:50.562Z,18.6
2018-10-16T02:35:51.349Z,17.4
2018-10-16T02:36:52.073Z,17.0
2018-10-16T02:37:52.811Z,17.0
2018-10-16T02:38:53.535Z,18.3
2018-10-16T02:39:54.270Z,17.5
2018-10-16T02:40:54.998Z,17.3
2018-10-16T02:41:55.710Z,17.5
2018-10-16T02:42:56.436Z,17.0
2018-10-16T02:43:57.176Z,17.7
2018-10-16T02:44:57.900Z,17.1
2018-10-16T02:45:58.635Z,16.1
2018-10-16T02:46:59.369Z,16.5
2018-10-16T02:48:00.088Z,15.4
2018-10-16T02:49:00.821Z,16.0
2018-10-16T02:50:01.829Z,16.1
2018-10-16T02:51:02.562Z,14.9
2018-10-16T02:52:03.279Z,15.0
2018-10-16T02:53:04.060Z,16.1
2018-10-16T02:54:04.785Z,15.2
2018-10-16T02:55:05.507Z,15.5
2018-10-16T02:56:06.235Z,14.8
2018-10-16T02:57:06.974Z,15.8
2018-10-16T02:58:07.689Z,16.3
2018-10-16T02:59:08.686Z,14.4
2018-10-16T03:00:09.408Z,15.6
2018-10-16T03:01:10.130Z,15.6
2018-10-16T03:02:10.854Z,15.7
2018-10-16T03:03:11.597Z,16.6
2018-10-16T03:04:12.373Z,15.6
2018-10-16T03:05:13.094Z,17.1
2018-10-16T03:06:13.812Z,16.3
2018-10-16T03:07:14.782Z,15.7
2018-10-16T03:08:15.504Z,15.4
2018-10-16T03:09:16.235Z,14.5
2018-10-16T03:10:16.980Z,15.5
2018-10-16T03:11:17.693Z,15.6
2018-10-16T03:12:18.429Z,15.5
2018-10-16T03:13:19.141Z,14.9
2018-10-16T03:14:19.923Z,15.3
2018-10-16T03:15:20.642Z,15.3
2018-10-16T03:16:21.373Z,15.6
2018-10-16T03:17:22.105Z,16.0
2018-10-16T03:18:22.829Z,16.3
2018-10-16T03:19:23.599Z,16.3
2018-10-16T03:20:24.344Z,16.0
2018-10-16T03:21:25.077Z,16.4
2018-10-16T03:22:25.804Z,16.6
2018-10-16T03:23:26.774Z,15.5
2018-10-16T03:24:27.517Z,16.6
2018-10-16T03:25:28.244Z,17.2
2018-10-16T03:26:28.988Z,16.9
2018-10-16T03:27:29.734Z,16.7
2018-10-16T03:28:30.459Z,16.6
2018-10-16T03:29:31.188Z,17.3
2018-10-16T03:30:31.939Z,16.2
2018-10-16T03:31:32.668Z,16.9
2018-10-16T03:32:33.382Z,17.2
2018-10-16T03:33:34.130Z,16.3
2018-10-16T03:34:34.854Z,16.5
2018-10-16T03:35:35.629Z,17.3
2018-10-16T03:36:36.359Z,19.6
2018-10-16T03:37:37.090Z,15.9
2018-10-16T03:38:38.071Z,17.4
2018-10-16T03:39:38.805Z,17.1
2018-10-16T03:40:39.527Z,17.1
2018-10-16T03:41:40.264Z,18.2
2018-10-16T03:42:40.993Z,17.7
2018-10-16T03:43:41.703Z,17.3
2018-10-16T03:44:42.449Z,17.9
2018-10-16T03:45:43.173Z,18.1
2018-10-16T03:46:43.907Z,17.1
2018-10-16T03:47:44.713Z,18.1
2018-10-16T03:48:45.625Z,18.1
2018-10-16T03:49:46.340Z,18.9
2018-10-16T03:50:47.321Z,17.7
2018-10-16T03:51:48.102Z,17.6
2018-10-16T03:52:48.837Z,19.0
2018-10-16T03:53:49.557Z,18.3
2018-10-16T03:54:50.522Z,16.8
2018-10-16T03:55:51.246Z,18.7
2018-10-16T03:56:52.026Z,18.0
2018-10-16T03:57:52.741Z,18.5
2018-10-16T03:58:53.504Z,18.6
2018-10-16T03:59:54.221Z,17.8
2018-10-16T04:00:54.960Z,17.9
2018-10-16T04:01:55.677Z,18.1
2018-10-16T04:02:56.669Z,18.4
2018-10-16T04:03:57.396Z,18.1
2018-10-16T04:04:58.382Z,18.0
2018-10-16T04:05:59.100Z,17.4
2018-10-16T04:06:59.816Z,17.9
2018-10-16T04:08:00.547Z,17.3
2018-10-16T04:09:01.256Z,17.7
2018-10-16T04:10:01.987Z,18.0
2018-10-16T04:11:02.704Z,16.8
2018-10-16T04:12:03.469Z,17.1
2018-10-16T04:13:04.197Z,18.2
2018-10-16T04:14:04.972Z,17.2
2018-10-16T04:15:05.685Z,18.1
2018-10-16T04:16:06.401Z,17.9
2018-10-16T04:17:07.187Z,17.1
2018-10-16T04:18:07.934Z,17.4
2018-10-16T04:19:08.655Z,19.3
2018-10-16T04:20:09.395Z,18.0
2018-10-16T04:21:10.112Z,16.6
2018-10-16T04:22:10.938Z,17.3
2018-10-16T04:23:11.615Z,16.1
2018-10-16T04:24:12.351Z,17.8
2018-10-16T04:25:13.066Z,17.6
2018-10-16T04:26:13.792Z,17.1
2018-10-16T04:27:14.511Z,19.3
2018-10-16T04:28:15.235Z,17.4
2018-10-16T04:29:16.064Z,18.6
2018-10-16T04:30:16.671Z,17.2
2018-10-16T04:31:17.447Z,18.9
2018-10-16T04:32:18.163Z,18.3
2018-10-16T04:33:18.882Z,17.3
2018-10-16T04:34:19.615Z,17.1
2018-10-16T04:35:20.327Z,18.6
2018-10-16T04:36:21.120Z,17.2
2018-10-16T04:37:21.846Z,17.4
2018-10-16T04:38:22.571Z,18.1
2018-10-16T04:39:23.292Z,18.0
2018-10-16T04:40:24.284Z,18.4
2018-10-16T04:41:25.046Z,18.9
2018-10-16T04:42:25.739Z,19.0
2018-10-16T04:43:26.721Z,19.3
2018-10-16T04:44:27.467Z,18.2
2018-10-16T04:45:28.530Z,19.1
2018-10-16T04:46:29.243Z,18.7
2018-10-16T04:47:30.269Z,18.6
2018-10-16T04:48:31.235Z,18.1
2018-10-16T04:49:31.943Z,18.3
2018-10-16T04:50:32.688Z,18.8
2018-10-16T04:51:33.410Z,17.9
2018-10-16T04:52:34.394Z,18.6
2018-10-16T04:53:35.373Z,18.7
2018-10-16T04:54:36.114Z,18.7
2018-10-16T04:55:36.881Z,22.9
2018-10-16T04:56:37.618Z,23.1
2018-10-16T04:57:38.327Z,22.4
2018-10-16T04:58:39.330Z,17.3
2018-10-16T04:59:40.052Z,18.3
2018-10-16T05:00:41.957Z,19.4
2018-10-16T05:01:42.708Z,19.1
2018-10-16T05:02:43.703Z,20.2
2018-10-16T05:03:44.683Z,20.0
2018-10-16T05:04:45.398Z,20.0
2018-10-16T05:05:46.382Z,19.4
2018-10-16T05:06:47.093Z,19.6
2018-10-16T05:07:47.813Z,19.4
2018-10-16T05:08:48.531Z,19.1
2018-10-16T05:09:49.256Z,43.9
2018-10-16T05:10:50.225Z,23.5
2018-10-16T05:11:51.215Z,19.8
2018-10-16T05:12:51.931Z,19.0
2018-10-16T05:13:52.653Z,20.8
2018-10-16T05:14:53.628Z,19.0
2018-10-16T05:15:54.359Z,18.9
2018-10-16T05:16:55.181Z,17.8
2018-10-16T05:17:55.860Z,17.9
2018-10-16T05:18:56.610Z,18.0
2018-10-16T05:19:57.334Z,17.8
2018-10-16T05:20:58.315Z,17.3
2018-10-16T05:21:59.039Z,17.0
2018-10-16T05:22:59.751Z,18.3
2018-10-16T05:24:00.478Z,20.2
2018-10-16T05:25:01.210Z,20.3
2018-10-16T05:26:01.945Z,18.6
2018-10-16T05:27:02.684Z,18.8
2018-10-16T05:28:03.412Z,18.6
2018-10-16T05:29:04.141Z,19.5
2018-10-16T05:30:05.114Z,18.0
2018-10-16T05:31:05.886Z,19.0
2018-10-16T05:32:06.556Z,18.2
2018-10-16T05:33:07.280Z,18.3
2018-10-16T05:34:08.007Z,19.0
2018-10-16T05:35:08.739Z,18.2
2018-10-16T05:36:09.717Z,18.4
2018-10-16T05:37:10.435Z,18.5
2018-10-16T05:38:11.158Z,19.5
2018-10-16T05:39:11.901Z,18.9
2018-10-16T05:40:12.604Z,19.0
2018-10-16T05:41:13.335Z,18.5
2018-10-16T05:42:14.060Z,17.6
2018-10-16T05:43:14.828Z,18.3
2018-10-16T05:44:15.553Z,18.0
2018-10-16T05:45:16.277Z,18.8
2018-10-16T05:46:16.992Z,17.6
2018-10-16T05:47:17.732Z,17.7
2018-10-16T05:48:18.460Z,17.8
2018-10-16T05:49:19.277Z,18.6
2018-10-16T05:50:20.011Z,17.7
2018-10-16T05:51:20.759Z,17.0
2018-10-16T05:52:21.507Z,17.9
2018-10-16T05:53:22.603Z,17.0
2018-10-16T05:54:23.347Z,18.3
2018-10-16T05:55:23.986Z,17.2
2018-10-16T05:56:24.696Z,16.7
2018-10-16T05:57:25.413Z,16.3
2018-10-16T05:58:26.138Z,16.7
2018-10-16T05:59:26.868Z,17.7
2018-10-16T06:00:27.594Z,17.5
2018-10-16T06:01:28.323Z,17.7
2018-10-16T06:02:29.054Z,17.6
2018-10-16T06:03:29.775Z,17.3
2018-10-16T06:04:30.499Z,17.3
2018-10-16T06:05:31.280Z,17.0
2018-10-16T06:06:31.949Z,16.3
2018-10-16T06:07:32.923Z,16.8
2018-10-16T06:08:33.653Z,17.2
2018-10-16T06:09:34.377Z,16.7
2018-10-16T06:10:35.136Z,16.6
2018-10-16T06:11:35.839Z,16.0
2018-10-16T06:12:36.593Z,16.8
2018-10-16T06:13:37.359Z,16.2
2018-10-16T06:14:38.340Z,18.2
2018-10-16T06:15:39.095Z,17.1
2018-10-16T06:16:39.809Z,17.6
2018-10-16T06:17:40.545Z,17.5
2018-10-16T06:18:41.268Z,18.6
2018-10-16T06:19:42.013Z,17.9
2018-10-16T06:20:42.758Z,17.5
2018-10-16T06:21:43.480Z,17.4
2018-10-16T06:22:44.449Z,17.1
2018-10-16T06:23:45.219Z,18.9
2018-10-16T06:24:45.947Z,17.3
2018-10-16T06:25:46.664Z,16.8
2018-10-16T06:26:47.410Z,17.4
2018-10-16T06:27:48.253Z,17.7
2018-10-16T06:28:48.916Z,17.4
2018-10-16T06:29:49.885Z,18.1
2018-10-16T06:30:50.629Z,18.2
2018-10-16T06:31:51.356Z,17.6
2018-10-16T06:32:52.088Z,17.2
2018-10-16T06:33:52.822Z,16.9
2018-10-16T06:34:53.550Z,16.0
2018-10-16T06:35:54.271Z,15.3
2018-10-16T06:36:55.010Z,14.9
2018-10-16T06:37:55.731Z,15.9
2018-10-16T06:38:56.486Z,15.3
2018-10-16T06:39:57.197Z,15.4
2018-10-16T06:40:58.144Z,14.2
2018-10-16T06:41:58.648Z,14.4
2018-10-16T06:42:59.382Z,14.9
2018-10-16T06:44:00.223Z,14.7
2018-10-16T06:45:00.851Z,14.0
2018-10-16T06:46:01.578Z,13.9
2018-10-16T06:47:02.599Z,13.9
2018-10-16T06:48:03.437Z,13.5
2018-10-16T06:49:04.307Z,13.2
2018-10-16T06:50:05.043Z,14.4
2018-10-16T06:51:06.011Z,13.2
2018-10-16T06:52:06.731Z,12.9
2018-10-16T06:53:07.464Z,12.0
2018-10-16T06:54:08.260Z,12.7
2018-10-16T06:55:09.339Z,13.6
2018-10-16T06:56:10.030Z,13.3
2018-10-16T06:57:11.020Z,12.5
2018-10-16T06:58:11.740Z,12.6
2018-10-16T06:59:12.474Z,13.6
2018-10-16T07:00:13.278Z,13.7
2018-10-16T07:01:13.929Z,12.8
2018-10-16T07:02:14.960Z,12.2
2018-10-16T07:03:15.675Z,12.6
2018-10-16T07:04:16.655Z,13.4
2018-10-16T07:05:17.954Z,12.8
2018-10-16T07:06:18.981Z,14.0
2018-10-16T07:07:20.013Z,13.8
2018-10-16T07:08:20.825Z,13.5
2018-10-16T07:10:37.079Z,13.1
2018-10-16T07:11:38.066Z,13.9
2018-10-16T07:12:39.083Z,13.1
2018-10-16T07:13:39.808Z,12.3
2018-10-16T07:14:40.537Z,13.1
2018-10-16T07:15:41.337Z,12.9
2018-10-16T07:16:42.093Z,13.9
2018-10-16T07:17:42.820Z,13.4
2018-10-16T07:18:43.589Z,12.9
2018-10-16T07:19:44.376Z,12.1
2018-10-16T07:20:45.102Z,13.6
2018-10-16T07:21:45.831Z,13.3
2018-10-16T07:22:46.806Z,13.0
2018-10-16T07:23:47.568Z,12.6
2018-10-16T07:24:48.356Z,13.6
2018-10-16T07:25:49.130Z,13.9
2018-10-16T07:26:49.881Z,12.6
2018-10-16T07:27:50.611Z,13.9
2018-10-16T07:28:51.347Z,14.5
2018-10-16T07:29:52.100Z,15.2
2018-10-16T07:30:52.824Z,14.3
2018-10-16T07:31:53.825Z,15.0
2018-10-16T07:32:54.560Z,15.6
2018-10-16T07:33:55.292Z,15.4
2018-10-16T07:34:56.271Z,14.8
2018-10-16T07:35:57.051Z,15.0
2018-10-16T07:36:57.778Z,14.6
2018-10-16T07:37:58.640Z,14.8
2018-10-16T07:38:59.381Z,14.5
2018-10-16T07:40:00.079Z,14.2
2018-10-16T07:41:01.075Z,14.8
2018-10-16T07:42:02.066Z,15.3
2018-10-16T07:43:02.865Z,14.4
2018-10-16T07:44:03.620Z,14.7
2018-10-16T07:45:04.343Z,14.6
2018-10-16T07:46:05.092Z,14.4
2018-10-16T07:47:05.840Z,13.5
2018-10-16T07:48:06.586Z,14.8
2018-10-16T07:49:07.322Z,13.4
2018-10-16T07:50:08.307Z,13.8
2018-10-16T07:51:09.117Z,13.2
2018-10-16T07:52:09.831Z,14.2
2018-10-16T07:53:10.846Z,14.2
2018-10-16T07:54:11.555Z,15.1
2018-10-16T07:55:12.288Z,14.1
2018-10-16T07:56:13.028Z,14.0
2018-10-16T07:57:13.795Z,13.7
2018-10-16T07:58:14.744Z,13.7
2018-10-16T07:59:15.484Z,14.1
2018-10-16T08:00:16.229Z,13.8
2018-10-16T08:01:17.423Z,13.8
2018-10-16T08:02:18.202Z,14.2
2018-10-16T08:03:18.947Z,14.3
2018-10-16T08:04:19.688Z,13.4
2018-10-16T08:05:20.416Z,14.1
2018-10-16T08:06:21.161Z,13.5
2018-10-16T08:07:21.895Z,13.3
2018-10-16T08:08:22.617Z,13.6
2018-10-16T08:09:23.350Z,13.6
2018-10-16T08:10:24.102Z,14.3
2018-10-16T08:11:24.929Z,14.1
2018-10-16T08:12:25.586Z,13.4
2018-10-16T08:13:26.322Z,14.0
2018-10-16T08:14:27.397Z,13.2
2018-10-16T08:15:28.130Z,14.0
2018-10-16T08:16:28.857Z,13.5
2018-10-16T08:17:29.599Z,12.8
2018-10-16T08:18:30.328Z,13.4
2018-10-16T08:19:31.058Z,13.6
2018-10-16T08:20:31.786Z,13.5
2018-10-16T08:21:32.529Z,12.6
2018-10-16T08:22:33.292Z,13.7
2018-10-16T08:23:34.270Z,14.3
2018-10-16T08:24:35.029Z,12.9
2018-10-16T08:25:35.759Z,13.5
2018-10-16T08:26:36.518Z,13.8
2018-10-16T08:27:37.240Z,13.6
2018-10-16T08:28:38.220Z,13.5
2018-10-16T08:29:38.953Z,13.2
2018-10-16T08:30:40.041Z,13.3
2018-10-16T08:31:40.963Z,14.1
2018-10-16T08:32:41.686Z,13.7
2018-10-16T08:33:42.698Z,13.8
2018-10-16T08:34:43.475Z,14.2
2018-10-16T08:35:44.218Z,15.5
2018-10-16T08:36:45.056Z,13.7
2018-10-16T08:37:45.690Z,13.7
2018-10-16T08:38:46.686Z,14.7
2018-10-16T08:39:47.418Z,14.7
2018-10-16T08:40:48.158Z,14.2
2018-10-16T08:41:48.927Z,15.2
2018-10-16T08:42:49.610Z,14.8
2018-10-16T08:43:50.348Z,16.2
2018-10-16T08:44:51.100Z,15.7
2018-10-16T08:45:51.823Z,15.7
2018-10-16T08:46:52.556Z,15.9
2018-10-16T08:47:53.542Z,14.9
2018-10-16T08:48:54.268Z,15.7
2018-10-16T08:49:55.000Z,15.4
2018-10-16T08:50:55.740Z,15.8
2018-10-16T08:51:56.724Z,15.3
2018-10-16T08:52:57.451Z,14.7
2018-10-16T08:53:58.183Z,15.4
2018-10-16T08:54:58.973Z,16.2
2018-10-16T08:55:59.698Z,15.2
2018-10-16T08:57:00.418Z,15.2
2018-10-16T08:58:01.153Z,15.7
2018-10-16T08:59:01.880Z,14.1
2018-10-16T09:00:02.865Z,15.6
2018-10-16T09:01:03.622Z,15.3
2018-10-16T09:02:04.382Z,15.7
2018-10-16T09:03:05.108Z,16.5
2018-10-16T09:04:05.832Z,15.3
2018-10-16T09:05:06.821Z,15.7
2018-10-16T09:06:07.548Z,15.8
2018-10-16T09:07:08.356Z,15.1
2018-10-16T09:08:10.276Z,14.6
2018-10-16T09:09:11.414Z,14.8
2018-10-16T09:10:12.138Z,15.4
2018-10-16T09:11:12.867Z,14.3
2018-10-16T09:12:13.603Z,14.5
2018-10-16T09:13:14.474Z,14.4
2018-10-16T09:14:15.143Z,15.5
2018-10-16T09:15:15.842Z,15.8
2018-10-16T09:16:16.581Z,14.7
2018-10-16T09:17:17.312Z,14.0
2018-10-16T09:18:18.102Z,13.9
2018-10-16T09:19:18.831Z,15.5
2018-10-16T09:20:19.553Z,14.8
2018-10-16T09:21:20.297Z,14.7
2018-10-16T09:22:21.029Z,14.0
2018-10-16T09:23:21.810Z,14.8
2018-10-16T09:24:22.534Z,14.3
2018-10-16T09:25:23.284Z,15.2
2018-10-16T09:26:24.035Z,13.7
2018-10-16T09:27:24.754Z,14.2
2018-10-16T09:28:25.832Z,15.0
2018-10-16T09:29:26.574Z,14.3
2018-10-16T09:30:27.570Z,14.4
2018-10-16T09:31:28.299Z,15.3
2018-10-16T09:32:29.274Z,15.2
2018-10-16T09:33:30.169Z,14.1
2018-10-16T09:34:30.985Z,15.0
2018-10-16T09:35:31.699Z,15.1
2018-10-16T09:36:32.422Z,15.5
2018-10-16T09:37:33.243Z,14.5
2018-10-16T09:38:33.902Z,14.3
2018-10-16T09:39:34.896Z,13.6
2018-10-16T09:41:37.361Z,14.5
2018-10-16T09:42:38.099Z,13.4
2018-10-16T09:43:39.099Z,14.1
2018-10-16T09:44:40.437Z,14.0
2018-10-16T09:45:41.311Z,13.8
2018-10-16T09:46:42.286Z,13.2
2018-10-16T09:47:43.020Z,13.2
2018-10-16T09:48:43.759Z,13.1
2018-10-16T09:49:44.808Z,12.6
2018-10-16T09:50:47.074Z,13.0
2018-10-16T09:51:47.218Z,12.9
2018-10-16T09:52:47.958Z,12.9
2018-10-16T09:53:48.702Z,14.1
2018-10-16T09:54:49.441Z,12.6
2018-10-16T09:55:50.182Z,14.0
2018-10-16T09:56:50.920Z,13.4
2018-10-16T09:57:51.920Z,13.3
2018-10-16T09:58:52.685Z,12.8
2018-10-16T09:59:53.415Z,13.7
2018-10-16T10:00:54.528Z,12.4
2018-10-16T10:01:55.188Z,13.2
2018-10-16T10:02:56.183Z,12.4
2018-10-16T10:03:56.958Z,13.5
2018-10-16T10:04:58.137Z,13.3
2018-10-16T10:05:58.973Z,12.7
2018-10-16T10:07:00.761Z,13.1
2018-10-16T10:08:01.672Z,13.1
2018-10-16T10:09:02.430Z,12.2
2018-10-16T10:10:03.154Z,12.5
2018-10-16T10:11:04.305Z,12.7
2018-10-16T10:12:04.967Z,12.9
2018-10-16T10:13:05.708Z,12.6
2018-10-16T10:14:06.459Z,12.6
2018-10-16T10:15:07.185Z,13.4
2018-10-16T10:16:07.925Z,13.6
2018-10-16T10:17:08.672Z,12.5
2018-10-16T10:18:09.384Z,13.0
2018-10-16T10:19:10.386Z,12.9
2018-10-16T10:20:11.109Z,12.7
2018-10-16T10:21:11.841Z,11.9
2018-10-16T10:22:12.842Z,13.1
2018-10-16T10:23:13.859Z,13.3
2018-10-16T10:24:14.606Z,13.3
2018-10-16T10:25:15.398Z,13.3
2018-10-16T10:26:16.083Z,13.0
2018-10-16T10:27:16.825Z,12.5
2018-10-16T10:28:17.547Z,12.2
2018-10-16T10:29:18.284Z,12.0
2018-10-16T10:30:19.039Z,11.8
2018-10-16T10:31:19.829Z,12.0
2018-10-16T10:32:20.556Z,12.3
2018-10-16T10:33:21.321Z,12.5
2018-10-16T10:34:22.096Z,12.2
2018-10-16T10:35:22.858Z,12.4
2018-10-16T10:36:23.570Z,12.4
2018-10-16T10:37:24.321Z,12.6
2018-10-16T10:38:25.102Z,12.2
2018-10-16T10:39:25.842Z,13.1
2018-10-16T10:40:26.573Z,13.5
2018-10-16T10:41:27.321Z,12.9
2018-10-16T10:42:28.063Z,14.4
2018-10-16T10:43:28.801Z,13.7
2018-10-16T10:44:29.530Z,14.5
2018-10-16T10:45:30.271Z,14.6
2018-10-16T10:46:31.020Z,13.7
2018-10-16T10:47:31.753Z,14.1
2018-10-16T10:48:32.547Z,14.4
2018-10-16T10:49:33.286Z,15.1
2018-10-16T10:50:34.557Z,14.8
2018-10-16T10:51:35.258Z,14.7
2018-10-16T10:52:35.728Z,14.4
2018-10-16T10:53:36.492Z,13.8
2018-10-16T10:54:37.240Z,15.3
2018-10-16T10:55:37.972Z,14.6
2018-10-16T10:56:38.780Z,13.8
2018-10-16T10:57:39.445Z,13.8
2018-10-16T10:58:40.177Z,13.8
2018-10-16T10:59:40.928Z,13.6
2018-10-16T11:00:41.661Z,14.1
2018-10-16T11:01:42.400Z,12.8
2018-10-16T11:02:43.129Z,13.2
2018-10-16T11:03:43.955Z,15.8
2018-10-16T11:04:44.650Z,15.1
2018-10-16T11:05:45.378Z,15.0
2018-10-16T11:06:46.198Z,16.1
2018-10-16T11:07:46.941Z,14.6
2018-10-16T11:08:47.733Z,13.9
2018-10-16T11:09:48.467Z,13.1
2018-10-16T11:10:49.199Z,13.8
2018-10-16T11:11:49.991Z,12.6
2018-10-16T11:12:50.748Z,13.3
2018-10-16T11:13:51.492Z,13.8
2018-10-16T11:14:52.243Z,13.5
2018-10-16T11:15:53.048Z,12.9
2018-10-16T11:16:54.054Z,13.4
2018-10-16T11:17:54.781Z,12.6
2018-10-16T11:18:55.528Z,13.6
2018-10-16T11:19:56.263Z,12.7
2018-10-16T11:20:57.043Z,13.7
2018-10-16T11:21:57.759Z,14.2
2018-10-16T11:22:58.502Z,13.4
2018-10-16T11:23:59.518Z,13.4
2018-10-16T11:25:00.240Z,13.3
2018-10-16T11:26:01.223Z,13.1
2018-10-16T11:27:01.969Z,12.4
2018-10-16T11:28:02.696Z,12.5
2018-10-16T11:29:03.438Z,12.9
2018-10-16T11:30:04.175Z,12.0
2018-10-16T11:31:04.907Z,12.1
2018-10-16T11:32:05.645Z,12.4
2018-10-16T11:33:06.458Z,11.8
2018-10-16T11:34:07.128Z,11.5
2018-10-16T11:35:07.863Z,12.1
2018-10-16T11:36:08.639Z,12.8
2018-10-16T11:37:09.518Z,13.6
2018-10-16T11:38:10.127Z,13.6
2018-10-16T11:39:10.941Z,13.9
2018-10-16T11:40:11.617Z,13.0
2018-10-16T11:41:12.351Z,12.5
2018-10-16T11:42:13.104Z,12.4
2018-10-16T11:43:13.856Z,12.1
2018-10-16T11:44:14.587Z,13.5
2018-10-16T11:45:15.367Z,12.8
2018-10-16T11:46:16.072Z,12.8
2018-10-16T11:47:16.810Z,12.1
2018-10-16T11:48:17.547Z,12.5
2018-10-16T11:49:18.341Z,12.8
2018-10-16T11:50:19.099Z,12.7
2018-10-16T11:51:19.837Z,14.0
2018-10-16T11:52:20.663Z,13.1
2018-10-16T11:53:21.309Z,13.8
2018-10-16T11:54:22.045Z,13.8
2018-10-16T11:55:22.790Z,14.7
2018-10-16T11:56:23.526Z,13.2
2018-10-16T11:57:24.264Z,13.2
2018-10-16T11:58:25.254Z,13.9
2018-10-16T11:59:26.081Z,13.0
2018-10-16T12:00:26.728Z,14.1
2018-10-16T12:01:27.457Z,14.2
2018-10-16T12:02:28.244Z,15.1
2018-10-16T12:03:28.955Z,13.9
2018-10-16T12:04:29.706Z,14.7
2018-10-16T12:05:30.715Z,14.3
2018-10-16T12:06:31.446Z,15.3
2018-10-16T12:07:32.181Z,13.9
2018-10-16T12:08:32.909Z,14.8
2018-10-16T12:09:33.665Z,14.0
2018-10-16T12:10:34.437Z,14.2
2018-10-16T12:11:35.153Z,14.1
2018-10-16T12:12:36.168Z,13.8
2018-10-16T12:13:36.911Z,14.0
2018-10-16T12:14:37.637Z,14.6
2018-10-16T12:15:38.374Z,14.0
2018-10-16T12:16:39.176Z,14.4
2018-10-16T12:17:39.862Z,14.0
2018-10-16T12:18:40.895Z,14.6
2018-10-16T12:19:41.648Z,14.9
2018-10-16T12:20:42.383Z,13.2
2018-10-16T12:21:43.102Z,13.7
2018-10-16T12:22:43.841Z,14.7
2018-10-16T12:23:44.893Z,13.7
2018-10-16T12:24:45.571Z,14.4
2018-10-16T12:25:46.319Z,14.2
2018-10-16T12:26:47.066Z,13.2
2018-10-16T12:27:48.070Z,14.8
2018-10-16T12:28:48.839Z,13.7
2018-10-16T12:29:49.597Z,13.6
2018-10-16T12:30:50.344Z,13.2
2018-10-16T12:31:51.077Z,12.1
2018-10-16T12:32:51.820Z,14.2
2018-10-16T12:33:52.559Z,14.7
2018-10-16T12:34:53.597Z,14.8
2018-10-16T12:35:54.330Z,12.7
2018-10-16T12:36:55.161Z,13.1
2018-10-16T12:37:55.882Z,13.1
2018-10-16T12:38:56.677Z,12.8
2018-10-16T12:39:57.409Z,13.2
2018-10-16T12:40:58.184Z,13.1
2018-10-16T12:41:58.923Z,12.3
2018-10-16T12:42:59.723Z,12.8
2018-10-16T12:44:00.377Z,13.0
2018-10-16T12:45:01.161Z,12.7
2018-10-16T12:46:01.889Z,12.5
2018-10-16T12:47:02.670Z,13.1
2018-10-16T12:48:03.378Z,12.4
2018-10-16T12:49:04.091Z,12.3
2018-10-16T12:50:04.881Z,12.5
2018-10-16T12:51:05.680Z,12.9
2018-10-16T12:52:06.313Z,12.4
2018-10-16T12:53:07.120Z,11.7
2018-10-16T12:54:07.818Z,13.2
2018-10-16T12:55:08.558Z,12.9
2018-10-16T12:56:09.388Z,11.9
2018-10-16T12:57:10.150Z,12.4
2018-10-16T12:58:10.869Z,13.4
2018-10-16T12:59:11.676Z,13.5
2018-10-16T13:00:12.663Z,14.4
2018-10-16T13:01:13.341Z,13.9
2018-10-16T13:02:14.445Z,14.1
2018-10-16T13:03:15.219Z,14.8
2018-10-16T13:04:15.868Z,13.7
2018-10-16T13:05:16.644Z,14.6
2018-10-16T13:06:17.346Z,14.7
2018-10-16T13:07:18.134Z,14.0
2018-10-16T13:08:18.879Z,15.1
2018-10-16T13:09:19.928Z,15.0
2018-10-16T13:10:20.686Z,14.6
2018-10-16T13:11:21.415Z,14.6
2018-10-16T13:12:22.139Z,14.5
2018-10-16T13:13:22.888Z,14.4
2018-10-16T13:14:23.631Z,13.4
2018-10-16T13:15:24.354Z,13.6
2018-10-16T13:16:25.147Z,14.4
2018-10-16T13:17:26.522Z,13.6
2018-10-16T13:18:27.233Z,13.2
2018-10-16T13:19:27.972Z,13.6
2018-10-16T13:20:28.967Z,13.2
2018-10-16T13:21:29.721Z,14.2
2018-10-16T13:22:30.457Z,14.4
2018-10-16T13:23:31.255Z,15.5
2018-10-16T13:24:31.955Z,14.7
2018-10-16T13:25:32.691Z,15.3
2018-10-16T13:26:33.441Z,15.2
2018-10-16T13:27:34.718Z,15.0
2018-10-16T13:28:35.727Z,14.7
2018-10-16T13:29:36.558Z,14.6
2018-10-16T13:30:37.186Z,15.5
2018-10-16T13:31:37.929Z,14.5